TimeCDT,TemperatureF,Dew PointF,Humidity,Sea Level PressureIn,VisibilityMPH,Wind Direction,Wind SpeedMPH,Gust SpeedMPH,PrecipitationIn,Events,Conditions,WindDirDegrees,DateUTC
12:03 AM,35.6,33.8,93,29.98,2.5,North,12.7,-,0.05,Rain,Heavy Rain,10,2013-05-04 05:03:00
12:26 AM,35.6,35.6,100,29.98,3.0,North,9.2,21.9,0.22,Rain,Rain,10,2013-05-04 05:26:00
12:44 AM,35.6,35.6,100,30.00,6.0,Variable,3.5,-,0.29,Rain,Rain,0,2013-05-04 05:44:00
12:54 AM,36.0,35.1,97,30.01,2.5,NNE,9.2,-,0.36,Rain,Heavy Rain,20,2013-05-04 05:54:00
1:04 AM,37.4,35.6,93,29.97,9.0,NNE,10.4,-,0.03,Rain,Light Rain,20,2013-05-04 06:04:00
1:27 AM,37.4,35.6,93,29.96,10.0,North,17.3,-,0.04,,Overcast,10,2013-05-04 06:27:00
1:54 AM,37.0,35.1,93,29.97,10.0,North,12.7,-,0.04,,Overcast,360,2013-05-04 06:54:00
2:26 AM,37.4,35.6,93,29.96,10.0,NNE,12.7,-,0.01,Rain,Light Rain,30,2013-05-04 07:26:00
2:54 AM,37.0,36.0,96,29.97,6.0,NNE,10.4,-,0.06,Rain,Light Rain,20,2013-05-04 07:54:00
3:54 AM,39.0,37.0,93,29.95,10.0,NNE,13.8,-,0.03,Rain,Light Rain,20,2013-05-04 08:54:00
4:41 AM,39.2,39.2,100,29.93,10.0,NNE,8.1,-,0.00,,Overcast,30,2013-05-04 09:41:00
4:54 AM,39.9,39.0,97,29.95,8.0,NNE,9.2,-,0.00,,Overcast,30,2013-05-04 09:54:00
5:54 AM,42.1,39.9,92,29.97,6.0,NE,9.2,-,0.00,Rain,Light Rain,50,2013-05-04 10:54:00
6:54 AM,42.1,41.0,96,29.97,3.0,NE,11.5,-,0.01,Rain,Light Rain,40,2013-05-04 11:54:00
7:27 AM,42.8,42.8,100,29.95,5.0,NE,9.2,-,0.00,,Overcast,40,2013-05-04 12:27:00
7:54 AM,44.1,42.1,93,29.98,5.0,NE,9.2,-,0.00,Rain,Light Rain,40,2013-05-04 12:54:00
8:54 AM,45.0,44.1,97,29.99,5.0,NE,9.2,-,0.00,Rain,Light Rain,40,2013-05-04 13:54:00
9:54 AM,46.0,45.0,96,30.01,5.0,NE,12.7,-,0.00,,Overcast,50,2013-05-04 14:54:00
10:54 AM,51.1,48.9,92,30.02,5.0,ENE,13.8,-,N/A,,Overcast,60,2013-05-04 15:54:00
11:54 AM,55.9,52.0,87,30.03,8.0,East,11.5,-,N/A,,Overcast,80,2013-05-04 16:54:00
12:16 PM,57.2,51.8,82,30.01,8.0,ENE,9.2,-,N/A,,Overcast,60,2013-05-04 17:16:00
12:54 PM,60.1,54.0,80,30.02,9.0,NE,8.1,-,N/A,,Overcast,50,2013-05-04 17:54:00
1:27 PM,60.8,55.4,82,30.00,9.0,NNE,9.2,-,N/A,,Mostly Cloudy,20,2013-05-04 18:27:00
1:54 PM,61.0,54.0,78,30.01,10.0,NE,10.4,-,N/A,,Mostly Cloudy,40,2013-05-04 18:54:00
2:54 PM,64.0,55.9,75,30.00,10.0,ENE,9.2,-,0.01,,Overcast,70,2013-05-04 19:54:00
3:46 PM,66.2,55.4,68,29.97,10.0,ENE,11.5,-,N/A,,Overcast,60,2013-05-04 20:46:00
3:54 PM,66.0,55.9,70,29.98,10.0,NE,9.2,-,N/A,,Overcast,50,2013-05-04 20:54:00
4:54 PM,64.9,59.0,81,29.98,10.0,NNE,8.1,-,0.05,,Scattered Clouds,30,2013-05-04 21:54:00
5:54 PM,64.0,57.9,80,29.99,10.0,NNE,12.7,-,N/A,,Mostly Cloudy,20,2013-05-04 22:54:00
6:25 PM,62.6,57.2,82,29.99,10.0,North,12.7,-,N/A,,Mostly Cloudy,10,2013-05-04 23:25:00
6:32 PM,62.6,57.2,82,29.99,10.0,North,12.7,-,N/A,,Scattered Clouds,360,2013-05-04 23:32:00
6:54 PM,61.0,57.0,87,30.00,10.0,North,13.8,-,N/A,,Mostly Cloudy,360,2013-05-04 23:54:00
7:54 PM,57.0,54.0,89,30.02,10.0,North,13.8,-,N/A,,Overcast,350,2013-05-05 00:54:00
8:54 PM,54.0,50.0,86,30.04,10.0,North,12.7,-,N/A,,Scattered Clouds,360,2013-05-05 01:54:00
9:54 PM,52.0,48.0,86,30.05,10.0,North,6.9,-,N/A,,Mostly Cloudy,350,2013-05-05 02:54:00
10:54 PM,51.1,46.0,83,30.06,10.0,North,8.1,-,N/A,,Overcast,360,2013-05-05 03:54:00
11:54 PM,50.0,46.0,86,30.06,10.0,North,4.6,-,N/A,,Overcast,10,2013-05-05 04:54:00